sensor_id;sensor_type;location;lat;lon;timestamp;pressure;altitude;pressure_sealevel;temperature;humidity
10958;BME280;5531;42.570;23.676;2022-11-15T00:01:58;92549.22;;;3.88;100.00
10958;BME280;5531;42.570;23.676;2022-11-15T00:04:32;92553.84;;;3.94;100.00
10958;BME280;5531;42.570;23.676;2022-11-15T00:07:01;92551.09;;;3.95;100.00
10958;BME280;5531;42.570;23.676;2022-11-15T00:09:31;92549.13;;;4.07;100.00
10958;BME280;5531;42.570;23.676;2022-11-15T00:12:00;92546.69;;;4.06;100.00
10958;BME280;5531;42.570;23.676;2022-11-15T00:14:29;92555.09;;;4.17;100.00
10958;BME280;5531;42.570;23.676;2022-11-15T00:16:58;92551.09;;;4.23;100.00
10958;BME280;5531;42.570;23.676;2022-11-15T00:19:28;92554.06;;;4.28;100.00
10958;BME280;5531;42.570;23.676;2022-11-15T00:22:00;92553.13;;;4.29;100.00
10958;BME280;5531;42.570;23.676;2022-11-15T00:24:29;92561.41;;;4.33;100.00
10958;BME280;5531;42.570;23.676;2022-11-15T00:26:58;92556.03;;;4.44;100.00
10958;BME280;5531;42.570;23.676;2022-11-15T00:29:28;92553.66;;;4.51;100.00
10958;BME280;5531;42.570;23.676;2022-11-15T00:31:57;92548.47;;;4.51;100.00
10958;BME280;5531;42.570;23.676;2022-11-15T00:34:26;92545.06;;;4.50;100.00
10958;BME280;5531;42.570;23.676;2022-11-15T00:36:56;92535.81;;;4.66;100.00
10958;BME280;5531;42.570;23.676;2022-11-15T00:39:28;92535.56;;;4.59;100.00
10958;BME280;5531;42.570;23.676;2022-11-15T00:41:57;92534.13;;;4.56;100.00
10958;BME280;5531;42.570;23.676;2022-11-15T00:44:26;92537.81;;;4.54;100.00
10958;BME280;5531;42.570;23.676;2022-11-15T00:46:56;92535.44;;;4.61;100.00
10958;BME280;5531;42.570;23.676;2022-11-15T00:49:25;92528.94;;;4.56;100.00
10958;BME280;5531;42.570;23.676;2022-11-15T00:51:54;92536.03;;;4.54;100.00
10958;BME280;5531;42.570;23.676;2022-11-15T00:54:23;92528.59;;;4.59;100.00
10958;BME280;5531;42.570;23.676;2022-11-15T00:56:55;92525.63;;;4.54;100.00
10958;BME280;5531;42.570;23.676;2022-11-15T00:59:25;92519.41;;;4.47;100.00
10958;BME280;5531;42.570;23.676;2022-11-15T01:01:54;92526.78;;;4.52;100.00
10958;BME280;5531;42.570;23.676;2022-11-15T01:04:23;92524.31;;;4.50;100.00
10958;BME280;5531;42.570;23.676;2022-11-15T01:06:52;92517.78;;;4.46;100.00
10958;BME280;5531;42.570;23.676;2022-11-15T01:09:22;92517.34;;;4.51;100.00
10958;BME280;5531;42.570;23.676;2022-11-15T01:11:52;92518.13;;;4.33;100.00
10958;BME280;5531;42.570;23.676;2022-11-15T01:14:23;92514.06;;;4.31;100.00
10958;BME280;5531;42.570;23.676;2022-11-15T01:16:53;92524.66;;;4.19;100.00
10958;BME280;5531;42.570;23.676;2022-11-15T01:19:22;92517.97;;;4.17;100.00
10958;BME280;5531;42.570;23.676;2022-11-15T01:21:51;92520.19;;;4.12;100.00
10958;BME280;5531;42.570;23.676;2022-11-15T01:24:21;92518.72;;;4.09;100.00
10958;BME280;5531;42.570;23.676;2022-11-15T01:26:50;92511.59;;;4.11;100.00
10958;BME280;5531;42.570;23.676;2022-11-15T01:29:20;92515.34;;;3.99;100.00
10958;BME280;5531;42.570;23.676;2022-11-15T01:31:52;92514.53;;;3.98;100.00
10958;BME280;5531;42.570;23.676;2022-11-15T01:34:21;92515.53;;;3.88;100.00
10958;BME280;5531;42.570;23.676;2022-11-15T01:36:50;92517.16;;;3.89;100.00
10958;BME280;5531;42.570;23.676;2022-11-15T01:39:19;92511.22;;;3.78;100.00
10958;BME280;5531;42.570;23.676;2022-11-15T01:41:48;92512.31;;;3.76;100.00
10958;BME280;5531;42.570;23.676;2022-11-15T01:44:46;92502.00;;;3.66;100.00
10958;BME280;5531;42.570;23.676;2022-11-15T01:47:20;92506.41;;;3.56;100.00
10958;BME280;5531;42.570;23.676;2022-11-15T01:49:54;92509.81;;;3.56;100.00
10958;BME280;5531;42.570;23.676;2022-11-15T01:52:26;92506.31;;;3.47;100.00
10958;BME280;5531;42.570;23.676;2022-11-15T01:55:01;92502.84;;;3.57;100.00
10958;BME280;5531;42.570;23.676;2022-11-15T01:57:31;92501.13;;;3.47;100.00
10958;BME280;5531;42.570;23.676;2022-11-15T02:00:00;92507.13;;;3.48;100.00
10958;BME280;5531;42.570;23.676;2022-11-15T02:02:32;92499.19;;;3.49;100.00
10958;BME280;5531;42.570;23.676;2022-11-15T02:05:02;92506.19;;;3.39;100.00
10958;BME280;5531;42.570;23.676;2022-11-15T02:07:31;92499.25;;;3.40;100.00
10958;BME280;5531;42.570;23.676;2022-11-15T02:10:07;92502.25;;;3.35;100.00
10958;BME280;5531;42.570;23.676;2022-11-15T02:12:36;92512.06;;;3.32;100.00
10958;BME280;5531;42.570;23.676;2022-11-15T02:15:06;92507.84;;;3.30;100.00
10958;BME280;5531;42.570;23.676;2022-11-15T02:17:52;92510.56;;;3.29;100.00
10958;BME280;5531;42.570;23.676;2022-11-15T02:20:44;92504.06;;;3.25;100.00
10958;BME280;5531;42.570;23.676;2022-11-15T02:29:32;92493.06;;;3.03;100.00
10958;BME280;5531;42.570;23.676;2022-11-15T02:32:13;92490.03;;;3.08;100.00
10958;BME280;5531;42.570;23.676;2022-11-15T02:34:50;92498.38;;;3.02;100.00
10958;BME280;5531;42.570;23.676;2022-11-15T02:37:25;92486.00;;;2.96;100.00
10958;BME280;5531;42.570;23.676;2022-11-15T02:40:07;92487.34;;;3.00;100.00
10958;BME280;5531;42.570;23.676;2022-11-15T02:42:43;92487.91;;;3.03;100.00
10958;BME280;5531;42.570;23.676;2022-11-15T02:45:31;92483.28;;;2.97;100.00
10958;BME280;5531;42.570;23.676;2022-11-15T02:48:06;92491.97;;;2.96;100.00
10958;BME280;5531;42.570;23.676;2022-11-15T02:50:36;92484.34;;;2.94;100.00
10958;BME280;5531;42.570;23.676;2022-11-15T02:53:05;92486.94;;;2.94;100.00
10958;BME280;5531;42.570;23.676;2022-11-15T02:55:37;92478.81;;;2.80;100.00
10958;BME280;5531;42.570;23.676;2022-11-15T02:58:27;92479.34;;;2.83;100.00
10958;BME280;5531;42.570;23.676;2022-11-15T03:01:02;92489.94;;;2.90;100.00
10958;BME280;5531;42.570;23.676;2022-11-15T03:03:52;92499.91;;;2.85;100.00
10958;BME280;5531;42.570;23.676;2022-11-15T03:06:32;57190.16;;;-147.01;100.00
10958;BME280;5531;42.570;23.676;2022-11-15T03:09:09;57190.16;;;-147.01;100.00
10958;BME280;5531;42.570;23.676;2022-11-15T03:11:42;57190.16;;;-147.01;100.00
10958;BME280;5531;42.570;23.676;2022-11-15T03:14:19;57190.16;;;-147.01;100.00
10958;BME280;5531;42.570;23.676;2022-11-15T03:16:56;57190.16;;;-147.01;100.00
10958;BME280;5531;42.570;23.676;2022-11-15T03:19:32;57190.16;;;-147.01;100.00
10958;BME280;5531;42.570;23.676;2022-11-15T03:22:06;57190.16;;;-147.01;100.00
10958;BME280;5531;42.570;23.676;2022-11-15T03:24:38;57190.16;;;-147.01;100.00
10958;BME280;5531;42.570;23.676;2022-11-15T03:27:10;57190.16;;;-147.01;100.00
10958;BME280;5531;42.570;23.676;2022-11-15T03:29:44;57190.16;;;-147.01;100.00
10958;BME280;5531;42.570;23.676;2022-11-15T03:32:17;57190.16;;;-147.01;100.00
10958;BME280;5531;42.570;23.676;2022-11-15T03:34:53;57190.16;;;-147.01;100.00
10958;BME280;5531;42.570;23.676;2022-11-15T03:37:30;57190.16;;;-147.01;100.00
10958;BME280;5531;42.570;23.676;2022-11-15T03:40:02;57190.16;;;-147.01;100.00
10958;BME280;5531;42.570;23.676;2022-11-15T03:42:35;57190.16;;;-147.01;100.00
10958;BME280;5531;42.570;23.676;2022-11-15T03:45:13;57190.16;;;-147.01;100.00
10958;BME280;5531;42.570;23.676;2022-11-15T03:47:46;57190.16;;;-147.01;100.00
10958;BME280;5531;42.570;23.676;2022-11-15T03:50:21;57190.16;;;-147.01;100.00
10958;BME280;5531;42.570;23.676;2022-11-15T03:52:54;57190.16;;;-147.01;100.00
10958;BME280;5531;42.570;23.676;2022-11-15T03:55:24;57190.16;;;-147.01;100.00
10958;BME280;5531;42.570;23.676;2022-11-15T03:57:55;57190.16;;;-147.01;100.00
10958;BME280;5531;42.570;23.676;2022-11-15T04:00:27;57190.16;;;-147.01;100.00
10958;BME280;5531;42.570;23.676;2022-11-15T04:02:56;57190.16;;;-147.01;100.00
10958;BME280;5531;42.570;23.676;2022-11-15T04:05:28;57190.16;;;-147.01;100.00
10958;BME280;5531;42.570;23.676;2022-11-15T04:07:57;57190.16;;;-147.01;100.00
10958;BME280;5531;42.570;23.676;2022-11-15T04:10:26;57190.16;;;-147.01;100.00
10958;BME280;5531;42.570;23.676;2022-11-15T04:12:55;57190.16;;;-147.01;100.00
10958;BME280;5531;42.570;23.676;2022-11-15T04:15:25;57190.16;;;-147.01;100.00
10958;BME280;5531;42.570;23.676;2022-11-15T04:17:56;57190.16;;;-147.01;100.00
10958;BME280;5531;42.570;23.676;2022-11-15T04:20:29;57190.16;;;-147.01;100.00
10958;BME280;5531;42.570;23.676;2022-11-15T04:23:12;57190.16;;;-147.01;100.00
10958;BME280;5531;42.570;23.676;2022-11-15T04:25:55;57190.16;;;-147.01;100.00
10958;BME280;5531;42.570;23.676;2022-11-15T04:28:24;57190.16;;;-147.01;100.00
10958;BME280;5531;42.570;23.676;2022-11-15T04:30:53;57190.16;;;-147.01;100.00
10958;BME280;5531;42.570;23.676;2022-11-15T04:33:23;57190.16;;;-147.01;100.00
10958;BME280;5531;42.570;23.676;2022-11-15T04:35:54;57190.16;;;-147.01;100.00
10958;BME280;5531;42.570;23.676;2022-11-15T04:38:36;57190.16;;;-147.01;100.00
10958;BME280;5531;42.570;23.676;2022-11-15T04:41:05;57190.16;;;-147.01;100.00
10958;BME280;5531;42.570;23.676;2022-11-15T04:43:34;57190.16;;;-147.01;100.00
10958;BME280;5531;42.570;23.676;2022-11-15T04:46:04;57190.16;;;-147.01;100.00
10958;BME280;5531;42.570;23.676;2022-11-15T04:48:33;57190.16;;;-147.01;100.00
10958;BME280;5531;42.570;23.676;2022-11-15T04:51:05;57190.16;;;-147.01;100.00
10958;BME280;5531;42.570;23.676;2022-11-15T04:53:34;57190.16;;;-147.01;100.00
10958;BME280;5531;42.570;23.676;2022-11-15T04:56:04;57190.16;;;-147.01;100.00
10958;BME280;5531;42.570;23.676;2022-11-15T04:58:33;57190.16;;;-147.01;100.00
10958;BME280;5531;42.570;23.676;2022-11-15T05:01:07;57190.16;;;-147.01;100.00
10958;BME280;5531;42.570;23.676;2022-11-15T05:03:37;57190.16;;;-147.01;100.00
10958;BME280;5531;42.570;23.676;2022-11-15T05:06:21;57190.16;;;-147.01;100.00
10958;BME280;5531;42.570;23.676;2022-11-15T05:08:50;57190.16;;;-147.01;100.00
10958;BME280;5531;42.570;23.676;2022-11-15T05:11:19;57190.16;;;-147.01;100.00
10958;BME280;5531;42.570;23.676;2022-11-15T05:13:48;57190.16;;;-147.01;100.00
10958;BME280;5531;42.570;23.676;2022-11-15T05:16:18;57190.16;;;-147.01;100.00
10958;BME280;5531;42.570;23.676;2022-11-15T05:18:50;57190.16;;;-147.01;100.00
10958;BME280;5531;42.570;23.676;2022-11-15T05:21:22;57190.16;;;-147.01;100.00
10958;BME280;5531;42.570;23.676;2022-11-15T05:23:52;57190.16;;;-147.01;100.00
10958;BME280;5531;42.570;23.676;2022-11-15T05:26:21;57190.16;;;-147.01;100.00
10958;BME280;5531;42.570;23.676;2022-11-15T05:28:53;57190.16;;;-147.01;100.00
10958;BME280;5531;42.570;23.676;2022-11-15T05:31:23;57190.16;;;-147.01;100.00
10958;BME280;5531;42.570;23.676;2022-11-15T05:33:53;57190.16;;;-147.01;100.00
10958;BME280;5531;42.570;23.676;2022-11-15T05:36:31;57190.16;;;-147.01;100.00
10958;BME280;5531;42.570;23.676;2022-11-15T05:39:03;57190.16;;;-147.01;100.00
10958;BME280;5531;42.570;23.676;2022-11-15T05:41:35;57190.16;;;-147.01;100.00
10958;BME280;5531;42.570;23.676;2022-11-15T05:44:07;57190.16;;;-147.01;100.00
10958;BME280;5531;42.570;23.676;2022-11-15T05:46:37;57190.16;;;-147.01;100.00
10958;BME280;5531;42.570;23.676;2022-11-15T05:49:12;57190.16;;;-147.01;100.00
10958;BME280;5531;42.570;23.676;2022-11-15T05:51:46;57190.16;;;-147.01;100.00
10958;BME280;5531;42.570;23.676;2022-11-15T05:54:17;57190.16;;;-147.01;100.00
10958;BME280;5531;42.570;23.676;2022-11-15T05:56:49;57190.16;;;-147.01;100.00
10958;BME280;5531;42.570;23.676;2022-11-15T05:59:18;57190.16;;;-147.01;100.00
10958;BME280;5531;42.570;23.676;2022-11-15T06:01:48;57190.16;;;-147.01;100.00
10958;BME280;5531;42.570;23.676;2022-11-15T06:04:17;57190.16;;;-147.01;100.00
10958;BME280;5531;42.570;23.676;2022-11-15T06:06:49;57190.16;;;-147.01;100.00
10958;BME280;5531;42.570;23.676;2022-11-15T06:09:18;57190.16;;;-147.01;100.00
10958;BME280;5531;42.570;23.676;2022-11-15T06:11:47;57190.16;;;-147.01;100.00
10958;BME280;5531;42.570;23.676;2022-11-15T06:14:16;57190.16;;;-147.01;100.00
10958;BME280;5531;42.570;23.676;2022-11-15T06:16:45;57190.16;;;-147.01;100.00
10958;BME280;5531;42.570;23.676;2022-11-15T06:19:15;57190.16;;;-147.01;100.00
10958;BME280;5531;42.570;23.676;2022-11-15T07:22:20;92431.09;;;3.39;100.00
10958;BME280;5531;42.570;23.676;2022-11-15T07:24:49;92439.00;;;3.38;100.00
10958;BME280;5531;42.570;23.676;2022-11-15T07:27:18;92432.75;;;3.30;100.00
10958;BME280;5531;42.570;23.676;2022-11-15T07:29:47;92438.81;;;3.49;100.00
10958;BME280;5531;42.570;23.676;2022-11-15T07:32:16;92433.44;;;3.60;100.00
10958;BME280;5531;42.570;23.676;2022-11-15T07:34:45;92442.34;;;3.76;100.00
10958;BME280;5531;42.570;23.676;2022-11-15T07:37:14;92442.88;;;3.79;100.00
10958;BME280;5531;42.570;23.676;2022-11-15T07:39:46;92432.31;;;3.91;100.00
10958;BME280;5531;42.570;23.676;2022-11-15T07:42:15;92436.78;;;3.98;100.00
10958;BME280;5531;42.570;23.676;2022-11-15T07:44:56;92424.75;;;4.15;100.00
10958;BME280;5531;42.570;23.676;2022-11-15T07:47:25;92424.31;;;4.20;100.00
10958;BME280;5531;42.570;23.676;2022-11-15T07:49:56;92424.03;;;4.23;100.00
10958;BME280;5531;42.570;23.676;2022-11-15T07:52:25;57190.16;;;-147.01;100.00
10958;BME280;5531;42.570;23.676;2022-11-15T07:54:57;57190.16;;;-147.01;100.00
10958;BME280;5531;42.570;23.676;2022-11-15T07:57:26;57190.16;;;-147.01;100.00
10958;BME280;5531;42.570;23.676;2022-11-15T07:59:55;57190.16;;;-147.01;100.00
10958;BME280;5531;42.570;23.676;2022-11-15T08:02:24;57190.16;;;-147.01;100.00
10958;BME280;5531;42.570;23.676;2022-11-15T08:04:54;57190.16;;;-147.01;100.00
10958;BME280;5531;42.570;23.676;2022-11-15T08:07:23;57190.16;;;-147.01;100.00
10958;BME280;5531;42.570;23.676;2022-11-15T08:09:52;57190.16;;;-147.01;100.00
10958;BME280;5531;42.570;23.676;2022-11-15T08:12:25;57190.16;;;-147.01;100.00
10958;BME280;5531;42.570;23.676;2022-11-15T08:14:54;57190.16;;;-147.01;100.00
10958;BME280;5531;42.570;23.676;2022-11-15T08:17:24;57190.16;;;-147.01;100.00
10958;BME280;5531;42.570;23.676;2022-11-15T08:19:57;57190.16;;;-147.01;100.00
10958;BME280;5531;42.570;23.676;2022-11-15T08:22:27;57190.16;;;-147.01;100.00
10958;BME280;5531;42.570;23.676;2022-11-15T08:24:56;57190.16;;;-147.01;100.00
10958;BME280;5531;42.570;23.676;2022-11-15T08:27:28;57190.16;;;-147.01;100.00
10958;BME280;5531;42.570;23.676;2022-11-15T08:29:57;57190.16;;;-147.01;100.00
10958;BME280;5531;42.570;23.676;2022-11-15T08:32:27;57190.16;;;-147.01;100.00
10958;BME280;5531;42.570;23.676;2022-11-15T08:34:56;57190.16;;;-147.01;100.00
10958;BME280;5531;42.570;23.676;2022-11-15T08:37:26;57190.16;;;-147.01;100.00
10958;BME280;5531;42.570;23.676;2022-11-15T08:39:55;57190.16;;;-147.01;100.00
10958;BME280;5531;42.570;23.676;2022-11-15T08:42:24;57190.16;;;-147.01;100.00
10958;BME280;5531;42.570;23.676;2022-11-15T08:44:55;57190.16;;;-147.01;100.00
10958;BME280;5531;42.570;23.676;2022-11-15T08:47:25;57190.16;;;-147.01;100.00
10958;BME280;5531;42.570;23.676;2022-11-15T08:49:54;57190.16;;;-147.01;100.00
10958;BME280;5531;42.570;23.676;2022-11-15T08:52:23;57190.16;;;-147.01;100.00
10958;BME280;5531;42.570;23.676;2022-11-15T08:54:52;57190.16;;;-147.01;100.00
10958;BME280;5531;42.570;23.676;2022-11-15T08:57:21;57190.16;;;-147.01;100.00
10958;BME280;5531;42.570;23.676;2022-11-15T08:59:50;57190.16;;;-147.01;100.00
10958;BME280;5531;42.570;23.676;2022-11-15T09:02:22;57190.16;;;-147.01;100.00
10958;BME280;5531;42.570;23.676;2022-11-15T09:04:51;57190.16;;;-147.01;100.00
10958;BME280;5531;42.570;23.676;2022-11-15T09:07:20;57190.16;;;-147.01;100.00
10958;BME280;5531;42.570;23.676;2022-11-15T09:09:49;57190.16;;;-147.01;100.00
10958;BME280;5531;42.570;23.676;2022-11-15T09:12:18;57190.16;;;-147.01;100.00
10958;BME280;5531;42.570;23.676;2022-11-15T09:14:47;57190.16;;;-147.01;100.00
10958;BME280;5531;42.570;23.676;2022-11-15T09:17:17;57190.16;;;-147.01;100.00
10958;BME280;5531;42.570;23.676;2022-11-15T09:19:48;57190.16;;;-147.01;100.00
10958;BME280;5531;42.570;23.676;2022-11-15T09:22:18;57190.16;;;-147.01;100.00
10958;BME280;5531;42.570;23.676;2022-11-15T09:24:47;57190.16;;;-147.01;100.00
10958;BME280;5531;42.570;23.676;2022-11-15T09:27:16;57190.16;;;-147.01;100.00
10958;BME280;5531;42.570;23.676;2022-11-15T09:29:45;57190.16;;;-147.01;100.00
10958;BME280;5531;42.570;23.676;2022-11-15T09:32:14;57190.16;;;-147.01;100.00
10958;BME280;5531;42.570;23.676;2022-11-15T09:34:43;57190.16;;;-147.01;100.00
10958;BME280;5531;42.570;23.676;2022-11-15T09:37:15;57190.16;;;-147.01;100.00
10958;BME280;5531;42.570;23.676;2022-11-15T09:39:44;57190.16;;;-147.01;100.00
10958;BME280;5531;42.570;23.676;2022-11-15T09:42:25;57190.16;;;-147.01;100.00
10958;BME280;5531;42.570;23.676;2022-11-15T09:45:12;57190.16;;;-147.01;100.00
10958;BME280;5531;42.570;23.676;2022-11-15T09:47:56;57190.16;;;-147.01;100.00
10958;BME280;5531;42.570;23.676;2022-11-15T09:50:36;57190.16;;;-147.01;100.00
10958;BME280;5531;42.570;23.676;2022-11-15T09:53:14;57190.16;;;-147.01;100.00
10958;BME280;5531;42.570;23.676;2022-11-15T09:55:49;57190.16;;;-147.01;100.00
10958;BME280;5531;42.570;23.676;2022-11-15T09:58:26;57190.16;;;-147.01;100.00
10958;BME280;5531;42.570;23.676;2022-11-15T10:01:00;57190.16;;;-147.01;100.00
10958;BME280;5531;42.570;23.676;2022-11-15T10:03:35;57190.16;;;-147.01;100.00
10958;BME280;5531;42.570;23.676;2022-11-15T10:06:05;57190.16;;;-147.01;100.00
10958;BME280;5531;42.570;23.676;2022-11-15T10:08:47;57190.16;;;-147.01;100.00
10958;BME280;5531;42.570;23.676;2022-11-15T10:11:22;57190.16;;;-147.01;100.00
10958;BME280;5531;42.570;23.676;2022-11-15T10:13:54;57190.16;;;-147.01;100.00
10958;BME280;5531;42.570;23.676;2022-11-15T10:16:55;57190.16;;;-147.01;100.00
10958;BME280;5531;42.570;23.676;2022-11-15T10:19:35;57190.16;;;-147.01;100.00
10958;BME280;5531;42.570;23.676;2022-11-15T10:22:20;57190.16;;;-147.01;100.00
10958;BME280;5531;42.570;23.676;2022-11-15T10:25:13;57190.16;;;-147.01;100.00
10958;BME280;5531;42.570;23.676;2022-11-15T10:27:47;57190.16;;;-147.01;100.00
10958;BME280;5531;42.570;23.676;2022-11-15T10:30:28;57190.16;;;-147.01;100.00
10958;BME280;5531;42.570;23.676;2022-11-15T10:33:10;57190.16;;;-147.01;100.00
10958;BME280;5531;42.570;23.676;2022-11-15T10:35:40;57190.16;;;-147.01;100.00
10958;BME280;5531;42.570;23.676;2022-11-15T10:38:11;57190.16;;;-147.01;100.00
10958;BME280;5531;42.570;23.676;2022-11-15T10:40:43;57190.16;;;-147.01;100.00
10958;BME280;5531;42.570;23.676;2022-11-15T10:43:17;57190.16;;;-147.01;100.00
10958;BME280;5531;42.570;23.676;2022-11-15T10:45:58;57190.16;;;-147.01;100.00
10958;BME280;5531;42.570;23.676;2022-11-15T10:48:45;57190.16;;;-147.01;100.00
10958;BME280;5531;42.570;23.676;2022-11-15T10:51:21;57190.16;;;-147.01;100.00
10958;BME280;5531;42.570;23.676;2022-11-15T10:53:54;57190.16;;;-147.01;100.00
10958;BME280;5531;42.570;23.676;2022-11-15T10:56:27;57190.16;;;-147.01;100.00
10958;BME280;5531;42.570;23.676;2022-11-15T10:58:57;57190.16;;;-147.01;100.00
10958;BME280;5531;42.570;23.676;2022-11-15T11:01:27;57190.16;;;-147.01;100.00
10958;BME280;5531;42.570;23.676;2022-11-15T11:03:59;57190.16;;;-147.01;100.00
10958;BME280;5531;42.570;23.676;2022-11-15T11:06:30;57190.16;;;-147.01;100.00
10958;BME280;5531;42.570;23.676;2022-11-15T11:09:00;57190.16;;;-147.01;100.00
10958;BME280;5531;42.570;23.676;2022-11-15T11:11:47;57190.16;;;-147.01;100.00
10958;BME280;5531;42.570;23.676;2022-11-15T11:14:20;57190.16;;;-147.01;100.00
10958;BME280;5531;42.570;23.676;2022-11-15T11:16:55;57190.16;;;-147.01;100.00
10958;BME280;5531;42.570;23.676;2022-11-15T11:19:41;57190.16;;;-147.01;100.00
10958;BME280;5531;42.570;23.676;2022-11-15T11:22:20;57190.16;;;-147.01;100.00
10958;BME280;5531;42.570;23.676;2022-11-15T11:25:02;57190.16;;;-147.01;100.00
10958;BME280;5531;42.570;23.676;2022-11-15T11:27:43;57190.16;;;-147.01;100.00
10958;BME280;5531;42.570;23.676;2022-11-15T11:30:29;57190.16;;;-147.01;100.00
10958;BME280;5531;42.570;23.676;2022-11-15T11:33:16;57190.16;;;-147.01;100.00
10958;BME280;5531;42.570;23.676;2022-11-15T11:35:55;57190.16;;;-147.01;100.00
10958;BME280;5531;42.570;23.676;2022-11-15T11:38:42;57190.16;;;-147.01;100.00
10958;BME280;5531;42.570;23.676;2022-11-15T11:41:46;57190.16;;;-147.01;100.00
10958;BME280;5531;42.570;23.676;2022-11-15T11:44:36;57190.16;;;-147.01;100.00
10958;BME280;5531;42.570;23.676;2022-11-15T11:47:10;57190.16;;;-147.01;100.00
10958;BME280;5531;42.570;23.676;2022-11-15T11:49:43;57190.16;;;-147.01;100.00
10958;BME280;5531;42.570;23.676;2022-11-15T11:52:21;57190.16;;;-147.01;100.00
10958;BME280;5531;42.570;23.676;2022-11-15T11:55:01;57190.16;;;-147.01;100.00
10958;BME280;5531;42.570;23.676;2022-11-15T11:57:40;57190.16;;;-147.01;100.00
10958;BME280;5531;42.570;23.676;2022-11-15T12:00:18;57190.16;;;-147.01;100.00
10958;BME280;5531;42.570;23.676;2022-11-15T12:03:01;57190.16;;;-147.01;100.00
10958;BME280;5531;42.570;23.676;2022-11-15T12:05:35;57190.16;;;-147.01;100.00
10958;BME280;5531;42.570;23.676;2022-11-15T12:08:21;57190.16;;;-147.01;100.00
10958;BME280;5531;42.570;23.676;2022-11-15T12:10:58;57190.16;;;-147.01;100.00
10958;BME280;5531;42.570;23.676;2022-11-15T12:13:30;57190.16;;;-147.01;100.00
10958;BME280;5531;42.570;23.676;2022-11-15T12:16:10;57190.16;;;-147.01;100.00
10958;BME280;5531;42.570;23.676;2022-11-15T12:18:44;57190.16;;;-147.01;100.00
10958;BME280;5531;42.570;23.676;2022-11-15T12:21:21;57190.16;;;-147.01;100.00
10958;BME280;5531;42.570;23.676;2022-11-15T12:23:54;57190.16;;;-147.01;100.00
10958;BME280;5531;42.570;23.676;2022-11-15T12:26:34;57190.16;;;-147.01;100.00
10958;BME280;5531;42.570;23.676;2022-11-15T12:29:11;57190.16;;;-147.01;100.00
10958;BME280;5531;42.570;23.676;2022-11-15T12:31:49;57190.16;;;-147.01;100.00
10958;BME280;5531;42.570;23.676;2022-11-15T12:34:45;57190.16;;;-147.01;100.00
10958;BME280;5531;42.570;23.676;2022-11-15T12:37:34;57190.16;;;-147.01;100.00
10958;BME280;5531;42.570;23.676;2022-11-15T12:40:26;57190.16;;;-147.01;100.00
10958;BME280;5531;42.570;23.676;2022-11-15T12:45:48;57190.16;;;-147.01;100.00
10958;BME280;5531;42.570;23.676;2022-11-15T12:52:06;57190.16;;;-147.01;100.00
10958;BME280;5531;42.570;23.676;2022-11-15T12:54:52;57190.16;;;-147.01;100.00
10958;BME280;5531;42.570;23.676;2022-11-15T12:57:38;57190.16;;;-147.01;100.00
10958;BME280;5531;42.570;23.676;2022-11-15T13:03:29;57190.16;;;-147.01;100.00
10958;BME280;5531;42.570;23.676;2022-11-15T13:06:01;57190.16;;;-147.01;100.00
10958;BME280;5531;42.570;23.676;2022-11-15T13:08:46;57190.16;;;-147.01;100.00
10958;BME280;5531;42.570;23.676;2022-11-15T13:14:40;57190.16;;;-147.01;100.00
10958;BME280;5531;42.570;23.676;2022-11-15T13:17:25;57190.16;;;-147.01;100.00
10958;BME280;5531;42.570;23.676;2022-11-15T13:20:07;57190.16;;;-147.01;100.00
10958;BME280;5531;42.570;23.676;2022-11-15T13:22:41;57190.16;;;-147.01;100.00
10958;BME280;5531;42.570;23.676;2022-11-15T13:25:46;57190.16;;;-147.01;100.00
10958;BME280;5531;42.570;23.676;2022-11-15T13:28:26;57190.16;;;-147.01;100.00
10958;BME280;5531;42.570;23.676;2022-11-15T13:30:58;57190.16;;;-147.01;100.00
10958;BME280;5531;42.570;23.676;2022-11-15T13:33:31;57190.16;;;-147.01;100.00
10958;BME280;5531;42.570;23.676;2022-11-15T13:36:03;57190.16;;;-147.01;100.00
10958;BME280;5531;42.570;23.676;2022-11-15T13:38:34;57190.16;;;-147.01;100.00
10958;BME280;5531;42.570;23.676;2022-11-15T13:41:18;57190.16;;;-147.01;100.00
10958;BME280;5531;42.570;23.676;2022-11-15T13:43:49;57190.16;;;-147.01;100.00
10958;BME280;5531;42.570;23.676;2022-11-15T13:46:22;57190.16;;;-147.01;100.00
10958;BME280;5531;42.570;23.676;2022-11-15T13:48:55;57190.16;;;-147.01;100.00
10958;BME280;5531;42.570;23.676;2022-11-15T13:51:28;57190.16;;;-147.01;100.00
10958;BME280;5531;42.570;23.676;2022-11-15T13:54:02;57190.16;;;-147.01;100.00
10958;BME280;5531;42.570;23.676;2022-11-15T13:56:34;57190.16;;;-147.01;100.00
10958;BME280;5531;42.570;23.676;2022-11-15T13:59:09;57190.16;;;-147.01;100.00
10958;BME280;5531;42.570;23.676;2022-11-15T14:01:42;57190.16;;;-147.01;100.00
10958;BME280;5531;42.570;23.676;2022-11-15T14:04:13;57190.16;;;-147.01;100.00
10958;BME280;5531;42.570;23.676;2022-11-15T14:06:45;57190.16;;;-147.01;100.00
10958;BME280;5531;42.570;23.676;2022-11-15T14:09:31;57190.16;;;-147.01;100.00
10958;BME280;5531;42.570;23.676;2022-11-15T14:15:28;57190.16;;;-147.01;100.00
10958;BME280;5531;42.570;23.676;2022-11-15T14:17:58;57190.16;;;-147.01;100.00
10958;BME280;5531;42.570;23.676;2022-11-15T14:20:29;57190.16;;;-147.01;100.00
10958;BME280;5531;42.570;23.676;2022-11-15T14:23:00;57190.16;;;-147.01;100.00
10958;BME280;5531;42.570;23.676;2022-11-15T14:25:30;57190.16;;;-147.01;100.00
10958;BME280;5531;42.570;23.676;2022-11-15T14:28:14;57190.16;;;-147.01;100.00
10958;BME280;5531;42.570;23.676;2022-11-15T14:30:46;57190.16;;;-147.01;100.00
10958;BME280;5531;42.570;23.676;2022-11-15T14:33:23;57190.16;;;-147.01;100.00
10958;BME280;5531;42.570;23.676;2022-11-15T14:35:54;57190.16;;;-147.01;100.00